createdAt,value
2022-11-04T00:00:40.748Z,11.6
2022-11-04T00:03:06.808Z,11.6
2022-11-04T00:05:32.898Z,11.6
2022-11-04T00:07:58.998Z,11.6
2022-11-04T00:10:25.082Z,11.6
2022-11-04T00:12:51.178Z,11.6
2022-11-04T00:15:16.291Z,11.6
2022-11-04T00:17:42.396Z,11.5
2022-11-04T00:20:08.505Z,11.5
2022-11-04T00:22:34.590Z,11.5
2022-11-04T00:25:00.767Z,11.4
2022-11-04T00:27:26.777Z,11.4
2022-11-04T00:29:52.874Z,11.4
2022-11-04T00:32:18.978Z,11.4
2022-11-04T00:34:45.049Z,11.4
2022-11-04T00:37:11.189Z,11.5
2022-11-04T00:39:37.249Z,11.5
2022-11-04T00:42:03.336Z,11.5
2022-11-04T00:44:29.464Z,11.5
2022-11-04T00:46:54.550Z,11.6
2022-11-04T00:49:20.663Z,11.6
2022-11-04T00:51:46.748Z,11.6
2022-11-04T00:54:12.845Z,11.6
2022-11-04T00:56:38.939Z,11.6
2022-11-04T00:59:05.029Z,11.7
2022-11-04T01:01:31.133Z,11.7
2022-11-04T01:03:57.235Z,11.7
2022-11-04T01:06:23.364Z,11.7
2022-11-04T01:08:49.401Z,11.6
2022-11-04T01:11:15.535Z,11.6
2022-11-04T01:13:41.604Z,11.6
2022-11-04T01:16:07.849Z,11.5
2022-11-04T01:18:32.862Z,11.5
2022-11-04T01:20:58.896Z,11.4
2022-11-04T01:23:24.995Z,11.4
2022-11-04T01:25:51.106Z,11.3
2022-11-04T01:28:17.192Z,11.3
2022-11-04T01:30:43.292Z,11.3
2022-11-04T01:33:08.393Z,11.2
2022-11-04T01:35:34.503Z,11.2
2022-11-04T01:38:00.641Z,11.2
2022-11-04T01:40:26.685Z,11.2
2022-11-04T01:42:52.787Z,11.2
2022-11-04T01:45:18.882Z,11.1
2022-11-04T01:47:45.247Z,11.1
2022-11-04T01:50:11.063Z,11.1
2022-11-04T01:52:37.172Z,11.2
2022-11-04T01:55:03.271Z,11.2
2022-11-04T01:57:29.361Z,11.2
2022-11-04T01:59:55.478Z,11.2
2022-11-04T02:02:21.557Z,11.2
2022-11-04T02:04:46.663Z,11.2
2022-11-04T02:07:12.788Z,11.2
2022-11-04T02:09:38.861Z,11.2
2022-11-04T02:12:04.946Z,11.2
2022-11-04T02:14:31.102Z,11.1
2022-11-04T02:16:57.132Z,11.1
2022-11-04T02:19:23.230Z,11
2022-11-04T02:21:49.341Z,10.9
2022-11-04T02:24:15.438Z,10.9
2022-11-04T02:26:41.532Z,10.9
2022-11-04T02:29:07.622Z,10.8
2022-11-04T02:31:33.714Z,10.8
2022-11-04T02:33:59.846Z,10.8
2022-11-04T02:36:24.949Z,10.8
2022-11-04T02:38:51.020Z,10.8
2022-11-04T02:41:17.100Z,10.8
2022-11-04T02:43:43.210Z,10.8
2022-11-04T02:46:09.298Z,10.8
2022-11-04T02:48:35.418Z,10.8
2022-11-04T02:51:01.496Z,10.8
2022-11-04T02:53:27.603Z,10.8
2022-11-04T02:55:53.683Z,10.7
2022-11-04T02:58:19.791Z,10.7
2022-11-04T03:00:45.872Z,10.7
2022-11-04T03:03:11.976Z,10.7
2022-11-04T03:05:38.062Z,10.6
2022-11-04T03:10:29.284Z,10.6
2022-11-04T03:12:55.375Z,10.6
2022-11-04T03:15:21.530Z,10.5
2022-11-04T03:17:47.551Z,10.5
2022-11-04T03:20:13.652Z,10.5
2022-11-04T03:22:39.745Z,10.5
2022-11-04T03:25:05.856Z,10.4
2022-11-04T03:27:31.934Z,10.4
2022-11-04T03:29:58.031Z,10.3
2022-11-04T03:32:24.139Z,10.3
2022-11-04T03:34:50.244Z,10.2
2022-11-04T03:37:16.312Z,10.2
2022-11-04T03:39:41.429Z,10.2
2022-11-04T03:42:07.523Z,10.1
2022-11-04T03:44:33.630Z,10.1
2022-11-04T03:46:59.712Z,10.1
2022-11-04T03:49:25.812Z,10.1
2022-11-04T03:51:51.899Z,10
2022-11-04T03:54:18.024Z,10
2022-11-04T03:56:44.105Z,10
2022-11-04T03:59:10.187Z,9.9
2022-11-04T04:01:36.279Z,9.9
2022-11-04T04:04:02.379Z,9.9
2022-11-04T04:06:28.478Z,9.9
2022-11-04T04:08:54.606Z,9.8
2022-11-04T04:11:19.763Z,9.8
2022-11-04T04:13:45.784Z,9.8
2022-11-04T04:16:11.880Z,9.8
2022-11-04T04:18:37.969Z,9.7
2022-11-04T04:21:04.099Z,9.7
2022-11-04T04:23:30.171Z,9.7
2022-11-04T04:25:56.268Z,9.7
2022-11-04T04:28:22.351Z,9.7
2022-11-04T04:30:48.458Z,9.7
2022-11-04T04:33:14.563Z,9.7
2022-11-04T04:35:40.682Z,9.8
2022-11-04T04:38:06.745Z,9.8
2022-11-04T04:40:32.840Z,9.8
2022-11-04T04:42:57.997Z,9.8
2022-11-04T04:45:24.043Z,9.8
2022-11-04T04:47:50.141Z,9.8
2022-11-04T04:50:16.245Z,9.9
2022-11-04T04:52:42.341Z,9.8
2022-11-04T04:55:08.435Z,9.8
2022-11-04T04:57:34.519Z,9.7
2022-11-04T05:00:00.645Z,9.7
2022-11-04T05:02:26.700Z,9.7
2022-11-04T05:04:52.805Z,9.7
2022-11-04T05:07:18.918Z,9.7
2022-11-04T05:09:44.991Z,9.7
2022-11-04T05:12:11.099Z,9.7
2022-11-04T05:14:36.187Z,9.6
2022-11-04T05:17:02.302Z,9.6
2022-11-04T05:19:28.377Z,9.5
2022-11-04T05:21:54.473Z,9.5
2022-11-04T05:24:20.596Z,9.4
2022-11-04T05:26:46.679Z,9.4
2022-11-04T05:29:12.779Z,9.4
2022-11-04T05:31:38.862Z,9.4
2022-11-04T05:34:04.966Z,9.3
2022-11-04T05:36:31.146Z,9.3
2022-11-04T05:38:57.165Z,9.3
2022-11-04T05:41:23.253Z,9.2
2022-11-04T05:43:49.361Z,9.2
2022-11-04T05:46:14.446Z,9.2
2022-11-04T05:48:40.554Z,9.2
2022-11-04T05:51:06.647Z,9.2
2022-11-04T05:53:32.726Z,9.2
2022-11-04T05:55:58.841Z,9.2
2022-11-04T05:58:24.929Z,9.2
2022-11-04T06:00:51.021Z,9.1
2022-11-04T06:03:17.139Z,9.1
2022-11-04T06:05:43.222Z,9.1
2022-11-04T06:08:09.305Z,9.1
2022-11-04T06:13:01.559Z,9
2022-11-04T06:15:27.604Z,9
2022-11-04T06:17:52.730Z,9
2022-11-04T06:20:18.803Z,9
2022-11-04T06:22:44.893Z,8.9
2022-11-04T06:25:11.008Z,8.9
2022-11-04T06:27:37.125Z,9
2022-11-04T06:30:03.201Z,9
2022-11-04T06:32:29.365Z,9
2022-11-04T06:34:55.391Z,9
2022-11-04T06:37:21.562Z,9
2022-11-04T06:39:47.599Z,8.9
2022-11-04T06:42:13.713Z,8.9
2022-11-04T06:44:39.750Z,8.9
2022-11-04T06:47:05.896Z,8.9
2022-11-04T06:49:31.048Z,8.9
2022-11-04T06:51:57.093Z,8.9
2022-11-04T06:54:23.213Z,8.9
2022-11-04T06:56:49.293Z,8.9
2022-11-04T06:59:15.429Z,8.8
2022-11-04T07:01:41.476Z,8.8
2022-11-04T07:04:07.538Z,8.8
2022-11-04T07:06:33.650Z,8.9
2022-11-04T07:08:59.802Z,9
2022-11-04T07:11:25.865Z,9
2022-11-04T07:13:51.959Z,9.1
2022-11-04T07:16:18.016Z,9.1
2022-11-04T07:18:44.131Z,9.1
2022-11-04T07:21:09.211Z,9.2
2022-11-04T07:23:35.316Z,9.2
2022-11-04T07:26:01.415Z,9.3
2022-11-04T07:28:27.526Z,9.3
2022-11-04T07:30:53.623Z,9.3
2022-11-04T07:33:19.735Z,9.3
2022-11-04T07:35:45.794Z,9.4
2022-11-04T07:38:11.893Z,9.4
2022-11-04T07:40:37.991Z,9.4
2022-11-04T07:43:04.094Z,9.4
2022-11-04T07:45:30.176Z,9.4
2022-11-04T07:47:56.284Z,9.5
2022-11-04T07:50:22.394Z,9.5
2022-11-04T07:52:47.474Z,9.6
2022-11-04T07:55:13.600Z,9.7
2022-11-04T07:57:39.672Z,9.8
2022-11-04T08:00:05.764Z,9.8
2022-11-04T08:02:31.880Z,9.8
2022-11-04T08:04:58.032Z,9.8
2022-11-04T08:07:24.158Z,9.8
2022-11-04T08:09:50.209Z,9.8
2022-11-04T08:12:16.242Z,9.7
2022-11-04T08:14:42.431Z,9.8
2022-11-04T08:17:08.478Z,9.8
2022-11-04T08:19:34.596Z,9.8
2022-11-04T08:22:00.658Z,9.9
2022-11-04T08:24:25.738Z,10
2022-11-04T08:26:51.826Z,10.1
2022-11-04T08:29:17.954Z,10.2
2022-11-04T08:31:44.020Z,10.2
2022-11-04T08:34:10.138Z,10.2
2022-11-04T08:36:36.217Z,10.3
2022-11-04T08:39:02.331Z,10.3
2022-11-04T08:41:28.398Z,10.4
2022-11-04T08:43:54.512Z,10.4
2022-11-04T08:46:20.611Z,10.4
2022-11-04T08:48:46.702Z,10.5
2022-11-04T08:51:12.792Z,10.6
2022-11-04T08:53:38.900Z,10.7
2022-11-04T08:56:05.115Z,10.8
2022-11-04T08:58:31.211Z,10.7
2022-11-04T09:00:57.300Z,10.8
2022-11-04T09:03:23.389Z,10.8
2022-11-04T09:05:49.489Z,10.9
2022-11-04T09:08:15.607Z,10.8
2022-11-04T09:10:41.679Z,10.8
2022-11-04T09:13:07.774Z,10.8
2022-11-04T09:15:33.889Z,11
2022-11-04T09:17:59.991Z,11
2022-11-04T09:20:26.067Z,11.1
2022-11-04T09:25:18.273Z,11.3
2022-11-04T09:27:43.363Z,11.4
2022-11-04T09:30:09.462Z,11.4
2022-11-04T09:35:01.768Z,11.5
2022-11-04T09:37:27.750Z,11.6
2022-11-04T09:39:53.856Z,11.7
2022-11-04T09:42:18.951Z,11.8
2022-11-04T09:44:45.069Z,11.9
2022-11-04T09:47:11.154Z,11.9
2022-11-04T09:49:37.250Z,12
2022-11-04T09:52:03.339Z,12.1
2022-11-04T09:54:29.456Z,12.2
2022-11-04T09:56:55.609Z,12.3
2022-11-04T09:59:21.624Z,12.4
2022-11-04T10:01:47.767Z,12.5
2022-11-04T10:04:13.831Z,12.5
2022-11-04T10:06:39.930Z,12.6
2022-11-04T10:09:06.033Z,12.6
2022-11-04T10:11:32.128Z,12.5
2022-11-04T10:13:57.221Z,12.6
2022-11-04T10:16:23.331Z,12.6
2022-11-04T10:18:49.432Z,12.7
2022-11-04T10:21:15.506Z,12.7
2022-11-04T10:23:41.607Z,12.7
2022-11-04T10:28:33.811Z,12.8
2022-11-04T10:30:59.900Z,12.7
2022-11-04T10:33:26.010Z,12.7
2022-11-04T10:35:52.083Z,12.8
2022-11-04T10:38:18.222Z,12.8
2022-11-04T10:40:44.274Z,12.9
2022-11-04T10:43:10.392Z,12.9
2022-11-04T10:45:35.499Z,13
2022-11-04T10:48:01.563Z,13.2
2022-11-04T10:50:27.657Z,13.1
2022-11-04T10:52:53.763Z,13.3
2022-11-04T10:55:19.907Z,13.3
2022-11-04T10:57:45.978Z,13.4
2022-11-04T11:00:12.108Z,13.4
2022-11-04T11:02:38.142Z,13.5
2022-11-04T11:05:04.270Z,13.6
2022-11-04T11:07:30.366Z,13.5
2022-11-04T11:09:56.488Z,13.5
2022-11-04T11:12:22.527Z,13.4
2022-11-04T11:14:48.621Z,13.4
2022-11-04T11:17:13.725Z,13.4
2022-11-04T11:19:39.811Z,13.3
2022-11-04T11:22:05.909Z,13.4
2022-11-04T11:24:32.023Z,13.4
2022-11-04T11:26:58.113Z,13.4
2022-11-04T11:29:24.211Z,13.4
2022-11-04T11:31:50.301Z,13.5
2022-11-04T11:34:16.429Z,13.6
2022-11-04T11:36:42.513Z,13.5
2022-11-04T11:39:08.589Z,13.4
2022-11-04T11:41:34.719Z,13.5
2022-11-04T11:44:00.804Z,13.6
2022-11-04T11:46:26.890Z,13.6
2022-11-04T11:48:51.987Z,13.5
2022-11-04T11:51:18.110Z,13.6
2022-11-04T11:56:10.289Z,13.6
2022-11-04T11:58:36.365Z,13.7
2022-11-04T12:01:02.473Z,13.7
2022-11-04T12:03:28.588Z,13.8
2022-11-04T12:05:54.652Z,13.9
2022-11-04T12:08:20.744Z,13.9
2022-11-04T12:10:46.911Z,13.9
2022-11-04T12:13:12.934Z,14
2022-11-04T12:15:39.032Z,13.9
2022-11-04T12:18:05.140Z,13.8
2022-11-04T12:20:30.250Z,13.8
2022-11-04T12:22:56.345Z,13.9
2022-11-04T12:25:22.479Z,13.9
2022-11-04T12:27:48.562Z,14
2022-11-04T12:30:14.648Z,14
2022-11-04T12:32:40.732Z,14
2022-11-04T12:35:06.858Z,13.9
2022-11-04T12:37:32.918Z,13.8
2022-11-04T12:39:59.008Z,13.8
2022-11-04T12:42:25.114Z,13.8
2022-11-04T12:47:17.387Z,13.8
2022-11-04T12:49:43.430Z,13.8
2022-11-04T12:52:08.513Z,13.8
2022-11-04T12:54:34.611Z,13.8
2022-11-04T12:57:00.688Z,13.9
2022-11-04T12:59:26.807Z,13.9
2022-11-04T13:01:52.903Z,13.9
2022-11-04T13:04:19.046Z,14
2022-11-04T13:06:45.106Z,14
2022-11-04T13:09:11.188Z,14
2022-11-04T13:11:37.281Z,13.9
2022-11-04T13:14:03.402Z,13.9
2022-11-04T13:16:29.477Z,13.9
2022-11-04T13:18:55.555Z,13.7
2022-11-04T13:21:21.673Z,13.8
2022-11-04T13:23:46.783Z,13.7
2022-11-04T13:26:12.896Z,13.8
2022-11-04T13:28:38.974Z,13.7
2022-11-04T13:31:05.071Z,13.7
2022-11-04T13:35:57.303Z,13.7
2022-11-04T13:38:23.361Z,13.8
2022-11-04T13:40:49.468Z,13.8
2022-11-04T13:43:15.539Z,13.8
2022-11-04T13:45:41.629Z,13.9
2022-11-04T13:48:07.742Z,13.9
2022-11-04T13:50:33.849Z,14
2022-11-04T13:52:59.951Z,14
2022-11-04T13:55:25.048Z,14
2022-11-04T13:57:51.150Z,13.9
2022-11-04T14:00:17.236Z,13.8
2022-11-04T14:02:43.332Z,13.8
2022-11-04T14:05:09.420Z,13.7
2022-11-04T14:07:35.525Z,13.6
2022-11-04T14:10:01.620Z,13.6
2022-11-04T14:12:27.705Z,13.6
2022-11-04T14:14:53.815Z,13.7
2022-11-04T14:17:19.901Z,13.6
2022-11-04T14:19:45.984Z,13.6
2022-11-04T14:22:12.099Z,13.7
2022-11-04T14:24:38.186Z,13.7
2022-11-04T14:27:03.295Z,13.7
2022-11-04T14:29:29.469Z,13.6
2022-11-04T14:31:55.549Z,13.6
2022-11-04T14:34:21.592Z,13.6
2022-11-04T14:36:47.728Z,13.6
2022-11-04T14:39:13.783Z,13.6
2022-11-04T14:41:39.868Z,13.5
2022-11-04T14:44:05.972Z,13.5
2022-11-04T14:46:32.069Z,13.5
2022-11-04T14:48:58.168Z,13.5
2022-11-04T14:51:24.252Z,13.5
2022-11-04T14:53:50.357Z,13.5
2022-11-04T14:56:16.438Z,13.5
2022-11-04T14:58:41.550Z,13.4
2022-11-04T15:01:07.656Z,13.3
2022-11-04T15:03:33.753Z,13.3
2022-11-04T15:05:59.857Z,13.2
2022-11-04T15:08:25.937Z,13.2
2022-11-04T15:10:52.031Z,13.2
2022-11-04T15:13:18.157Z,13.2
2022-11-04T15:15:44.237Z,13.1
2022-11-04T15:18:10.373Z,13.1
2022-11-04T15:20:36.433Z,13.1
2022-11-04T15:23:02.556Z,13.1
2022-11-04T15:25:28.615Z,13.1
2022-11-04T15:27:54.699Z,13.1
2022-11-04T15:30:19.812Z,13
2022-11-04T15:32:45.925Z,12.7
2022-11-04T15:35:12.015Z,12.4
2022-11-04T15:37:38.113Z,12.3
2022-11-04T15:40:04.193Z,12.2
2022-11-04T15:42:30.371Z,12.1
2022-11-04T15:44:56.437Z,12
2022-11-04T15:47:22.499Z,11.9
2022-11-04T15:49:48.600Z,11.9
2022-11-04T15:52:14.698Z,11.8
2022-11-04T15:54:40.782Z,11.7
2022-11-04T15:57:06.871Z,11.7
2022-11-04T15:59:32.970Z,11.6
2022-11-04T16:01:58.083Z,11.6
2022-11-04T16:04:24.175Z,11.6
2022-11-04T16:06:50.330Z,11.5
2022-11-04T16:09:16.364Z,11.4
2022-11-04T16:11:42.444Z,11.4
2022-11-04T16:14:08.567Z,11.3
2022-11-04T16:16:34.640Z,11.2
2022-11-04T16:19:00.770Z,11.2
2022-11-04T16:21:26.852Z,11.2
2022-11-04T16:23:52.925Z,11.1
2022-11-04T16:26:19.021Z,11.1
2022-11-04T16:28:45.114Z,11
2022-11-04T16:31:11.218Z,11
2022-11-04T16:33:36.333Z,11
2022-11-04T16:36:02.429Z,11
2022-11-04T16:38:28.519Z,11
2022-11-04T16:40:54.616Z,11
2022-11-04T16:43:20.719Z,11
2022-11-04T16:45:46.802Z,10.9
2022-11-04T16:48:12.910Z,10.9
2022-11-04T16:50:39.031Z,10.9
2022-11-04T16:53:05.113Z,10.8
2022-11-04T16:55:31.202Z,10.8
2022-11-04T16:57:57.286Z,10.7
2022-11-04T17:00:23.440Z,10.7
2022-11-04T17:02:49.476Z,10.7
2022-11-04T17:05:14.577Z,10.6
2022-11-04T17:07:40.668Z,10.6
2022-11-04T17:10:06.788Z,10.4
2022-11-04T17:12:32.888Z,10.4
2022-11-04T17:14:58.980Z,10.4
2022-11-04T17:17:25.160Z,10.4
2022-11-04T17:19:51.169Z,10.3
2022-11-04T17:22:17.264Z,10.4
2022-11-04T17:24:43.377Z,10.4
2022-11-04T17:27:09.479Z,10.3
2022-11-04T17:29:35.587Z,10.3
2022-11-04T17:32:01.649Z,10.3
2022-11-04T17:34:27.764Z,10.2
2022-11-04T17:36:52.858Z,10.2
2022-11-04T17:39:18.988Z,10.2
2022-11-04T17:41:45.030Z,10.2
2022-11-04T17:44:11.133Z,10.2
2022-11-04T17:46:37.251Z,10.2
2022-11-04T17:49:03.360Z,10.2
2022-11-04T17:51:28.470Z,10.2
2022-11-04T17:53:54.542Z,10.2
2022-11-04T17:56:20.634Z,10.2
2022-11-04T17:58:46.781Z,10.1
2022-11-04T18:01:12.833Z,10.1
2022-11-04T18:03:38.911Z,10.1
2022-11-04T18:06:05.011Z,10.1
2022-11-04T18:08:31.096Z,10.1
2022-11-04T18:10:57.223Z,10.1
2022-11-04T18:13:23.364Z,10.1
2022-11-04T18:15:49.429Z,10.1
2022-11-04T18:18:15.519Z,10.1
2022-11-04T18:20:41.696Z,10.1
2022-11-04T18:23:06.786Z,10
2022-11-04T18:25:32.801Z,10
2022-11-04T18:27:58.882Z,9.9
2022-11-04T18:30:25.047Z,9.9
2022-11-04T18:32:51.109Z,9.9
2022-11-04T18:35:17.203Z,9.9
2022-11-04T18:37:43.329Z,10
2022-11-04T18:40:09.359Z,10
2022-11-04T18:42:35.456Z,10
2022-11-04T18:45:01.541Z,10
2022-11-04T18:47:27.654Z,10
2022-11-04T18:49:53.773Z,9.9
2022-11-04T18:52:19.876Z,9.9
2022-11-04T18:54:44.946Z,9.9
2022-11-04T18:57:11.065Z,9.9
2022-11-04T18:59:37.153Z,10
2022-11-04T19:02:03.229Z,10
2022-11-04T19:04:29.364Z,10
2022-11-04T19:06:55.496Z,9.9
2022-11-04T19:09:21.531Z,9.9
2022-11-04T19:11:47.685Z,9.8
2022-11-04T19:14:13.722Z,9.9
2022-11-04T19:16:39.839Z,9.9
2022-11-04T19:19:05.901Z,9.9
2022-11-04T19:21:31.997Z,9.9
2022-11-04T19:23:58.110Z,9.9
2022-11-04T19:26:23.209Z,9.9
2022-11-04T19:28:49.304Z,9.9
2022-11-04T19:31:15.390Z,9.9
2022-11-04T19:33:41.496Z,10
2022-11-04T19:36:07.602Z,9.9
2022-11-04T19:38:33.680Z,9.8
2022-11-04T19:40:59.799Z,9.8
2022-11-04T19:43:25.913Z,9.8
2022-11-04T19:45:51.998Z,9.8
2022-11-04T19:48:18.068Z,9.8
2022-11-04T19:50:44.248Z,9.8
2022-11-04T19:53:10.249Z,9.8
2022-11-04T19:55:36.381Z,9.8
2022-11-04T19:58:01.573Z,9.8
2022-11-04T20:00:27.553Z,9.8
2022-11-04T20:02:53.783Z,9.8
2022-11-04T20:05:19.793Z,9.8
2022-11-04T20:07:45.849Z,9.8
2022-11-04T20:10:12.001Z,9.8
2022-11-04T20:12:38.046Z,9.8
2022-11-04T20:15:04.201Z,9.8
2022-11-04T20:17:30.313Z,9.8
2022-11-04T20:19:56.393Z,9.8
2022-11-04T20:22:22.456Z,9.7
2022-11-04T20:24:48.522Z,9.7
2022-11-04T20:27:14.625Z,9.7
2022-11-04T20:29:39.717Z,9.7
2022-11-04T20:32:05.851Z,9.6
2022-11-04T20:34:31.914Z,9.6
2022-11-04T20:36:58.038Z,9.6
2022-11-04T20:39:24.109Z,9.6
2022-11-04T20:41:50.209Z,9.6
2022-11-04T20:44:16.320Z,9.7
2022-11-04T20:46:42.411Z,9.6
2022-11-04T20:49:08.518Z,9.7
2022-11-04T20:51:34.596Z,9.7
2022-11-04T20:54:00.685Z,9.7
2022-11-04T20:56:26.785Z,9.6
2022-11-04T20:58:52.864Z,9.7
2022-11-04T21:01:18.060Z,9.6
2022-11-04T21:03:44.064Z,9.6
2022-11-04T21:06:10.172Z,9.6
2022-11-04T21:08:36.262Z,9.6
2022-11-04T21:11:02.364Z,9.5
2022-11-04T21:13:28.457Z,9.5
2022-11-04T21:15:54.556Z,9.5
2022-11-04T21:18:20.645Z,9.4
2022-11-04T21:20:46.777Z,9.4
2022-11-04T21:23:12.824Z,9.4
2022-11-04T21:25:38.934Z,9.4
2022-11-04T21:28:05.039Z,9.4
2022-11-04T21:30:31.124Z,9.4
2022-11-04T21:32:56.234Z,9.5
2022-11-04T21:35:22.319Z,9.6
2022-11-04T21:37:48.428Z,9.6
2022-11-04T21:40:14.532Z,9.6
2022-11-04T21:42:40.615Z,9.5
2022-11-04T21:45:06.728Z,9.5
2022-11-04T21:47:32.796Z,9.5
2022-11-04T21:49:58.911Z,9.6
2022-11-04T21:52:24.998Z,9.6
2022-11-04T21:54:51.152Z,9.5
2022-11-04T21:57:17.179Z,9.5
2022-11-04T21:59:43.296Z,9.5
2022-11-04T22:02:09.382Z,9.5
2022-11-04T22:04:34.490Z,9.5
2022-11-04T22:07:00.614Z,9.5
2022-11-04T22:09:26.678Z,9.6
2022-11-04T22:11:52.788Z,9.6
2022-11-04T22:14:18.875Z,9.6
2022-11-04T22:16:45.041Z,9.5
2022-11-04T22:19:11.060Z,9.6
2022-11-04T22:21:37.156Z,9.6
2022-11-04T22:24:03.300Z,9.6
2022-11-04T22:26:29.345Z,9.6
2022-11-04T22:28:55.450Z,9.6
2022-11-04T22:31:21.558Z,9.6
2022-11-04T22:33:47.628Z,9.6
2022-11-04T22:36:12.757Z,9.7
2022-11-04T22:38:38.833Z,9.7
2022-11-04T22:41:04.945Z,9.6
2022-11-04T22:43:31.075Z,9.6
2022-11-04T22:45:57.131Z,9.6
2022-11-04T22:48:23.219Z,9.6
2022-11-04T22:50:49.329Z,9.6
2022-11-04T22:53:15.421Z,9.7
2022-11-04T22:55:41.542Z,9.7
2022-11-04T22:58:07.616Z,9.6
2022-11-04T23:00:33.707Z,9.6
2022-11-04T23:02:59.806Z,9.6
2022-11-04T23:05:25.922Z,9.6
2022-11-04T23:07:51.014Z,9.7
2022-11-04T23:10:17.099Z,9.7
2022-11-04T23:12:43.211Z,9.7
2022-11-04T23:15:09.285Z,9.7
2022-11-04T23:17:35.390Z,9.7
2022-11-04T23:20:01.545Z,9.7
2022-11-04T23:22:27.585Z,9.7
2022-11-04T23:24:53.670Z,9.7
2022-11-04T23:27:19.754Z,9.7
2022-11-04T23:29:45.853Z,9.7
2022-11-04T23:32:11.970Z,9.7
2022-11-04T23:34:38.049Z,9.7
2022-11-04T23:37:04.164Z,9.7
2022-11-04T23:39:29.264Z,9.7
2022-11-04T23:41:55.351Z,9.7
2022-11-04T23:44:21.462Z,9.6
2022-11-04T23:46:47.549Z,9.6
2022-11-04T23:49:13.644Z,9.7
2022-11-04T23:51:39.727Z,9.7
2022-11-04T23:54:05.833Z,9.7
2022-11-04T23:56:32.185Z,9.7
2022-11-04T23:58:58.026Z,9.7
